createdAt,value
2019-03-23T00:00:15.713Z,101742.00
2019-03-23T00:02:58.555Z,101739.00
2019-03-23T00:05:40.700Z,101729.00
2019-03-23T00:08:16.310Z,101734.00
2019-03-23T00:10:58.259Z,101721.00
2019-03-23T00:13:41.076Z,101726.00
2019-03-23T00:16:17.461Z,101717.00
2019-03-23T00:19:00.126Z,101712.00
2019-03-23T00:21:41.933Z,101706.00
2019-03-23T00:24:18.073Z,101703.00
2019-03-23T00:26:53.870Z,101696.00
2019-03-23T00:29:36.619Z,101692.00
2019-03-23T00:32:12.511Z,101698.00
2019-03-23T00:34:55.130Z,101685.00
2019-03-23T00:37:36.925Z,101688.00
2019-03-23T00:40:16.109Z,101686.00
2019-03-23T00:42:58.678Z,101692.00
2019-03-23T00:45:34.132Z,101694.00
2019-03-23T00:48:16.618Z,101689.00
2019-03-23T00:50:52.124Z,101691.00
2019-03-23T00:53:35.055Z,101683.00
2019-03-23T00:56:17.396Z,101679.00
2019-03-23T00:58:59.911Z,101685.00
2019-03-23T01:01:42.680Z,101677.00
2019-03-23T01:04:24.594Z,101669.00
2019-03-23T01:07:00.187Z,101669.00
2019-03-23T01:09:42.062Z,101668.00
2019-03-23T01:12:25.104Z,101671.00
2019-03-23T01:15:06.846Z,101661.00
2019-03-23T01:17:56.086Z,101658.00
2019-03-23T01:20:49.102Z,101652.00
2019-03-23T01:23:16.015Z,101649.00
2019-03-23T01:25:58.934Z,101660.00
2019-03-23T01:28:35.446Z,101648.00
2019-03-23T01:31:18.456Z,101649.00
2019-03-23T01:33:54.218Z,101646.00
2019-03-23T01:36:35.913Z,101646.00
2019-03-23T01:39:20.464Z,101641.00
2019-03-23T01:42:02.724Z,101643.00
2019-03-23T01:44:45.039Z,101646.00
2019-03-23T01:47:27.662Z,101643.00
2019-03-23T01:50:03.413Z,101657.00
2019-03-23T01:52:46.466Z,101641.00
2019-03-23T01:55:22.194Z,101644.00
2019-03-23T01:58:04.490Z,101645.00
2019-03-23T02:00:43.279Z,101645.00
2019-03-23T02:03:25.430Z,101645.00
2019-03-23T02:06:01.785Z,101637.00
2019-03-23T02:08:44.095Z,101630.00
2019-03-23T02:11:19.713Z,101641.00
2019-03-23T02:14:02.150Z,101635.00
2019-03-23T02:16:37.710Z,101638.00
2019-03-23T02:19:21.139Z,101638.00
2019-03-23T02:22:03.308Z,101639.00
2019-03-23T02:24:45.681Z,101635.00
2019-03-23T02:27:21.627Z,101630.00
2019-03-23T02:30:04.636Z,101625.00
2019-03-23T02:32:47.490Z,101617.00
2019-03-23T02:35:23.047Z,101609.00
2019-03-23T02:38:05.800Z,101618.00
2019-03-23T02:40:47.914Z,101620.00
2019-03-23T02:43:31.219Z,101616.00
2019-03-23T02:46:07.035Z,101621.00
2019-03-23T02:48:49.652Z,101614.00
2019-03-23T02:51:25.408Z,101615.00
2019-03-23T02:54:08.228Z,101608.00
2019-03-23T02:56:58.416Z,101608.00
2019-03-23T02:59:34.241Z,101599.00
2019-03-23T03:02:16.786Z,101597.00
2019-03-23T03:04:59.435Z,101589.00
2019-03-23T03:07:43.784Z,101587.00
2019-03-23T03:10:55.170Z,101590.00
2019-03-23T03:13:30.785Z,101581.00
2019-03-23T03:16:13.476Z,101578.00
2019-03-23T03:18:55.666Z,101582.00
2019-03-23T03:21:32.066Z,101575.00
2019-03-23T03:24:14.748Z,101572.00
2019-03-23T03:26:57.296Z,101580.00
2019-03-23T03:29:39.029Z,101564.00
2019-03-23T03:32:21.494Z,101570.00
2019-03-23T03:35:10.363Z,101551.00
2019-03-23T03:37:57.040Z,101555.00
2019-03-23T03:40:36.397Z,101549.00
2019-03-23T03:43:18.891Z,101547.00
2019-03-23T03:45:54.597Z,101552.00
2019-03-23T03:48:37.419Z,101544.00
2019-03-23T03:51:13.797Z,101550.00
2019-03-23T03:53:55.539Z,101547.00
2019-03-23T03:56:31.413Z,101554.00
2019-03-23T03:59:13.227Z,101544.00
2019-03-23T04:01:49.670Z,101550.00
2019-03-23T04:04:32.103Z,101552.00
2019-03-23T04:07:08.558Z,101550.00
2019-03-23T04:09:51.702Z,101555.00
2019-03-23T04:12:27.436Z,101550.00
2019-03-23T04:15:09.168Z,101548.00
2019-03-23T04:17:58.041Z,101548.00
2019-03-23T04:20:40.891Z,101554.00
2019-03-23T04:23:17.154Z,101547.00
2019-03-23T04:25:59.944Z,101549.00
2019-03-23T04:28:35.661Z,101545.00
2019-03-23T04:31:18.742Z,101548.00
2019-03-23T04:33:54.693Z,101540.00
2019-03-23T04:36:37.861Z,101542.00
2019-03-23T04:39:14.794Z,101541.00
2019-03-23T04:41:58.136Z,101539.00
2019-03-23T04:44:40.284Z,101540.00
2019-03-23T04:47:22.994Z,101544.00
2019-03-23T04:49:59.355Z,101539.00
2019-03-23T04:52:41.830Z,101543.00
2019-03-23T04:55:26.288Z,101539.00
2019-03-23T04:58:08.586Z,101539.00
2019-03-23T05:00:51.674Z,101538.00
2019-03-23T05:03:41.196Z,101542.00
2019-03-23T05:06:23.743Z,101534.00
2019-03-23T05:08:59.574Z,101540.00
2019-03-23T05:11:41.958Z,101532.00
2019-03-23T05:14:18.388Z,101526.00
2019-03-23T05:17:00.934Z,101522.00
2019-03-23T05:19:37.456Z,101527.00
2019-03-23T05:22:20.051Z,101515.00
2019-03-23T05:24:55.542Z,101510.00
2019-03-23T05:27:38.820Z,101517.00
2019-03-23T05:30:16.218Z,101508.00
2019-03-23T05:32:59.374Z,101504.00
2019-03-23T05:35:41.715Z,101504.00
2019-03-23T05:38:23.867Z,101503.00
2019-03-23T05:41:06.894Z,101506.00
2019-03-23T05:43:42.580Z,101515.00
2019-03-23T05:46:25.049Z,101511.00
2019-03-23T05:49:00.750Z,101508.00
2019-03-23T05:51:43.222Z,101514.00
2019-03-23T05:54:32.727Z,101515.00
2019-03-23T05:57:15.090Z,101512.00
2019-03-23T05:59:51.425Z,101510.00
2019-03-23T06:02:33.618Z,101470.00
2019-03-23T06:05:16.351Z,101499.00
2019-03-23T06:07:58.597Z,101502.00
2019-03-23T06:10:35.054Z,101500.00
2019-03-23T06:13:16.824Z,101488.00
2019-03-23T06:15:59.522Z,101491.00
2019-03-23T06:18:35.365Z,101499.00
2019-03-23T06:21:17.954Z,101476.00
2019-03-23T06:24:00.182Z,101485.00
2019-03-23T06:26:43.471Z,101468.00
2019-03-23T06:29:19.102Z,101475.00
2019-03-23T06:32:02.266Z,101468.00
2019-03-23T06:34:37.857Z,101455.00
2019-03-23T06:37:19.764Z,101450.00
2019-03-23T06:39:55.254Z,101458.00
2019-03-23T06:42:38.590Z,101451.00
2019-03-23T06:45:17.281Z,101448.00
2019-03-23T06:48:00.702Z,101447.00
2019-03-23T06:50:43.307Z,101440.00
2019-03-23T06:53:33.277Z,101439.00
2019-03-23T06:56:15.511Z,101442.00
2019-03-23T06:59:01.037Z,101437.00
2019-03-23T07:01:43.606Z,101440.00
2019-03-23T07:04:19.916Z,101435.00
2019-03-23T07:07:03.192Z,101429.00
2019-03-23T07:09:45.641Z,101420.00
2019-03-23T07:12:21.269Z,101411.00
2019-03-23T07:15:04.417Z,101422.00
2019-03-23T07:17:53.678Z,101412.00
2019-03-23T07:20:35.502Z,101414.00
2019-03-23T07:23:11.820Z,101414.00
2019-03-23T07:25:54.218Z,101407.00
2019-03-23T07:28:37.275Z,101414.00
2019-03-23T07:31:20.175Z,101400.00
2019-03-23T07:33:56.562Z,101403.00
2019-03-23T07:36:32.287Z,101397.00
2019-03-23T07:39:15.341Z,101400.00
2019-03-23T07:41:51.262Z,101395.00
2019-03-23T07:44:33.422Z,101400.00
2019-03-23T07:47:15.588Z,101402.00
2019-03-23T07:49:52.003Z,101397.00
2019-03-23T07:52:34.755Z,101393.00
2019-03-23T07:55:29.980Z,101386.00
2019-03-23T07:58:11.897Z,101377.00
2019-03-23T08:00:54.776Z,101385.00
2019-03-23T08:03:37.289Z,101388.00
2019-03-23T08:06:13.198Z,101383.00
2019-03-23T08:08:55.308Z,101381.00
2019-03-23T08:11:37.473Z,101381.00
2019-03-23T08:14:13.868Z,101387.00
2019-03-23T08:16:56.790Z,101379.00
2019-03-23T08:19:32.471Z,101372.00
2019-03-23T08:22:15.217Z,101359.00
2019-03-23T08:24:57.251Z,101358.00
2019-03-23T08:27:33.670Z,101359.00
2019-03-23T08:30:16.514Z,101374.00
2019-03-23T08:32:59.238Z,101358.00
2019-03-23T08:35:43.122Z,101352.00
2019-03-23T08:38:18.349Z,101345.00
2019-03-23T08:41:00.224Z,101347.00
2019-03-23T08:43:35.714Z,101344.00
2019-03-23T08:46:18.595Z,101333.00
2019-03-23T08:49:00.982Z,101329.00
2019-03-23T08:51:36.758Z,101316.00
2019-03-23T08:54:19.284Z,101317.00
2019-03-23T08:57:08.633Z,101315.00
2019-03-23T08:59:44.467Z,101306.00
2019-03-23T09:02:26.796Z,101314.00
2019-03-23T09:05:09.289Z,101302.00
2019-03-23T09:07:52.702Z,101298.00
2019-03-23T09:10:28.347Z,101307.00
2019-03-23T09:13:10.703Z,101308.00
2019-03-23T09:15:53.408Z,101303.00
2019-03-23T09:18:36.221Z,101313.00
2019-03-23T09:21:18.629Z,101294.00
2019-03-23T09:23:54.639Z,101308.00
2019-03-23T09:26:30.505Z,101290.00
2019-03-23T09:29:13.583Z,101294.00
2019-03-23T09:31:56.764Z,101296.00
2019-03-23T09:34:53.655Z,101300.00
2019-03-23T09:37:29.472Z,101295.00
2019-03-23T09:40:12.623Z,101298.00
2019-03-23T09:43:01.483Z,101286.00
2019-03-23T09:45:37.805Z,101290.00
2019-03-23T09:48:20.318Z,101281.00
2019-03-23T09:51:03.592Z,101278.00
2019-03-23T09:53:39.416Z,101273.00
2019-03-23T09:56:21.527Z,101273.00
2019-03-23T09:59:04.009Z,101268.00
2019-03-23T10:01:46.892Z,101285.00
2019-03-23T10:04:23.000Z,101282.00
2019-03-23T10:07:05.971Z,101271.00
2019-03-23T10:09:48.056Z,101269.00
2019-03-23T10:12:37.356Z,101260.00
2019-03-23T10:15:13.514Z,101258.00
2019-03-23T10:17:56.205Z,101261.00
2019-03-23T10:20:38.102Z,101262.00
2019-03-23T10:23:21.035Z,101261.00
2019-03-23T10:26:02.814Z,101260.00
2019-03-23T10:28:38.430Z,101261.00
2019-03-23T10:31:21.028Z,101248.00
2019-03-23T10:33:56.612Z,101244.00
2019-03-23T10:36:40.834Z,101244.00
2019-03-23T10:39:29.725Z,101240.00
2019-03-23T10:42:05.918Z,101235.00
2019-03-23T10:44:48.381Z,101224.00
2019-03-23T10:47:25.049Z,101227.00
2019-03-23T10:50:07.240Z,101225.00
2019-03-23T10:52:43.375Z,101222.00
2019-03-23T10:55:25.711Z,101222.00
2019-03-23T10:58:15.484Z,101224.00
2019-03-23T11:00:58.037Z,101227.00
2019-03-23T11:03:34.174Z,101215.00
2019-03-23T11:06:17.555Z,101210.00
2019-03-23T11:08:53.302Z,101213.00
2019-03-23T11:11:35.793Z,101215.00
2019-03-23T11:14:18.831Z,101200.00
2019-03-23T11:17:00.819Z,101204.00
2019-03-23T11:19:37.487Z,101205.00
2019-03-23T11:22:19.626Z,101214.00
2019-03-23T11:25:02.818Z,101214.00
2019-03-23T11:27:39.554Z,101208.00
2019-03-23T11:30:23.312Z,101202.00
2019-03-23T11:32:59.967Z,101196.00
2019-03-23T11:35:42.731Z,101196.00
2019-03-23T11:38:18.415Z,101197.00
2019-03-23T11:41:01.198Z,101199.00
2019-03-23T11:43:43.473Z,101192.00
2019-03-23T11:46:26.643Z,101182.00
2019-03-23T11:49:02.687Z,101176.00
2019-03-23T11:51:45.635Z,101169.00
2019-03-23T11:54:21.283Z,101170.00
2019-03-23T11:57:03.349Z,101168.00
2019-03-23T11:59:39.783Z,101164.00
2019-03-23T12:02:22.737Z,101165.00
2019-03-23T12:04:58.660Z,101165.00
2019-03-23T12:07:40.709Z,101154.00
2019-03-23T12:10:28.087Z,101157.00
2019-03-23T12:13:04.041Z,101153.00
2019-03-23T12:15:47.150Z,101161.00
2019-03-23T12:18:29.625Z,101153.00
2019-03-23T12:21:12.402Z,101142.00
2019-03-23T12:23:55.262Z,101150.00
2019-03-23T12:26:31.266Z,101153.00
2019-03-23T12:29:07.076Z,101156.00
2019-03-23T12:31:49.578Z,101140.00
2019-03-23T12:34:31.350Z,101129.00
2019-03-23T12:37:07.397Z,101135.00
2019-03-23T12:39:50.126Z,101129.00
2019-03-23T12:42:33.111Z,101132.00
2019-03-23T12:45:08.685Z,101128.00
2019-03-23T12:47:44.510Z,101127.00
2019-03-23T12:50:21.742Z,101138.00
2019-03-23T12:52:58.119Z,101132.00
2019-03-23T12:55:39.872Z,101125.00
2019-03-23T12:58:16.144Z,101134.00
2019-03-23T13:00:58.200Z,101119.00
2019-03-23T13:03:40.591Z,101113.00
2019-03-23T13:06:23.269Z,101100.00
2019-03-23T13:09:06.364Z,101105.00
2019-03-23T13:11:48.420Z,101094.00
2019-03-23T13:14:31.188Z,101100.00
2019-03-23T13:17:13.353Z,101085.00
2019-03-23T13:19:49.747Z,101084.00
2019-03-23T13:22:31.484Z,101088.00
2019-03-23T13:25:07.480Z,101079.00
2019-03-23T13:27:50.252Z,101079.00
2019-03-23T13:30:32.626Z,101083.00
2019-03-23T13:33:15.069Z,101083.00
2019-03-23T13:35:51.445Z,101087.00
2019-03-23T13:38:34.047Z,101081.00
2019-03-23T13:41:09.554Z,101084.00
2019-03-23T13:43:51.874Z,101083.00
2019-03-23T13:46:28.104Z,101088.00
2019-03-23T13:49:12.657Z,101084.00
2019-03-23T13:51:48.071Z,101079.00
2019-03-23T13:54:31.164Z,101074.00
2019-03-23T13:57:07.476Z,101065.00
2019-03-23T13:59:49.606Z,101066.00
2019-03-23T14:02:25.653Z,101064.00
2019-03-23T14:05:15.615Z,101059.00
2019-03-23T14:07:45.960Z,101064.00
2019-03-23T14:10:29.267Z,101063.00
2019-03-23T14:13:11.836Z,101055.00
2019-03-23T14:15:48.191Z,101054.00
2019-03-23T14:18:30.982Z,101054.00
2019-03-23T14:21:15.064Z,101054.00
2019-03-23T14:23:51.079Z,101056.00
2019-03-23T14:26:33.979Z,101045.00
2019-03-23T14:29:16.885Z,101054.00
2019-03-23T14:31:52.742Z,101048.00
2019-03-23T14:34:35.202Z,101045.00
2019-03-23T14:37:10.922Z,101046.00
2019-03-23T14:39:52.888Z,101053.00
2019-03-23T14:42:35.377Z,101041.00
2019-03-23T14:45:18.598Z,101040.00
2019-03-23T14:47:54.623Z,101041.00
2019-03-23T14:50:30.985Z,101044.00
2019-03-23T14:53:13.420Z,101033.00
2019-03-23T14:55:49.477Z,101039.00
2019-03-23T14:58:31.736Z,101039.00
2019-03-23T15:01:14.467Z,101047.00
2019-03-23T15:03:50.846Z,101048.00
2019-03-23T15:06:33.347Z,101038.00
2019-03-23T15:09:15.985Z,101043.00
2019-03-23T15:11:52.182Z,101063.00
2019-03-23T15:14:35.277Z,101075.00
2019-03-23T15:17:20.459Z,101082.00
2019-03-23T15:19:56.152Z,101082.00
2019-03-23T15:22:38.991Z,101088.00
2019-03-23T15:25:16.644Z,101080.00
2019-03-23T15:27:52.166Z,101092.00
2019-03-23T15:30:34.492Z,101100.00
2019-03-23T15:33:11.202Z,101104.00
2019-03-23T15:35:52.942Z,101107.00
2019-03-23T15:38:35.379Z,101113.00
2019-03-23T15:41:17.196Z,101113.00
2019-03-23T15:44:06.275Z,101107.00
2019-03-23T15:47:08.638Z,101102.00
2019-03-23T15:49:58.183Z,101120.00
2019-03-23T15:52:41.209Z,101121.00
2019-03-23T15:55:18.124Z,101110.00
2019-03-23T15:58:01.491Z,101113.00
2019-03-23T16:00:44.693Z,101119.00
2019-03-23T16:03:34.124Z,101120.00
2019-03-23T16:06:17.180Z,101116.00
2019-03-23T16:09:20.876Z,101118.00
2019-03-23T16:12:10.082Z,101126.00
2019-03-23T16:14:52.930Z,101127.00
2019-03-23T16:17:35.595Z,101129.00
2019-03-23T16:20:26.393Z,101133.00
2019-03-23T16:23:09.247Z,101139.00
2019-03-23T16:25:44.774Z,101150.00
2019-03-23T16:28:27.152Z,101150.00
2019-03-23T16:31:10.147Z,101145.00
2019-03-23T16:33:46.464Z,101140.00
2019-03-23T16:36:28.996Z,101141.00
2019-03-23T16:39:14.028Z,101139.00
2019-03-23T16:41:56.743Z,101140.00
2019-03-23T16:44:50.759Z,101137.00
2019-03-23T16:47:39.239Z,101133.00
2019-03-23T16:50:21.535Z,101130.00
2019-03-23T16:52:57.709Z,101130.00
2019-03-23T16:55:40.890Z,101133.00
2019-03-23T16:58:16.628Z,101144.00
2019-03-23T17:00:58.518Z,101143.00
2019-03-23T17:03:34.244Z,101143.00
2019-03-23T17:06:16.820Z,101151.00
2019-03-23T17:08:53.199Z,101151.00
2019-03-23T17:11:36.116Z,101142.00
2019-03-23T17:14:12.800Z,101149.00
2019-03-23T17:16:55.356Z,101150.00
2019-03-23T17:20:03.849Z,101156.00
2019-03-23T17:22:39.482Z,101152.00
2019-03-23T17:25:22.825Z,101159.00
2019-03-23T17:28:12.755Z,101164.00
2019-03-23T17:30:55.479Z,101172.00
2019-03-23T17:33:38.495Z,101167.00
2019-03-23T17:36:27.207Z,101162.00
2019-03-23T17:39:04.925Z,101165.00
2019-03-23T17:42:06.872Z,101170.00
2019-03-23T17:44:48.934Z,101181.00
2019-03-23T17:47:24.889Z,101176.00
2019-03-23T17:50:08.237Z,101183.00
2019-03-23T17:52:43.993Z,101184.00
2019-03-23T17:55:26.309Z,101179.00
2019-03-23T17:58:08.594Z,101179.00
2019-03-23T18:00:51.476Z,101188.00
2019-03-23T18:03:27.887Z,101187.00
2019-03-23T18:06:11.530Z,101201.00
2019-03-23T18:08:53.426Z,101191.00
2019-03-23T18:11:29.429Z,101191.00
2019-03-23T18:14:11.778Z,101197.00
2019-03-23T18:16:54.957Z,101199.00
2019-03-23T18:19:22.006Z,101196.00
2019-03-23T18:22:11.395Z,101194.00
2019-03-23T18:25:01.124Z,101209.00
2019-03-23T18:27:50.565Z,101199.00
2019-03-23T18:30:56.828Z,101219.00
2019-03-23T18:33:32.386Z,101217.00
2019-03-23T18:36:14.983Z,101218.00
2019-03-23T18:39:04.431Z,101212.00
2019-03-23T18:41:53.750Z,101234.00
2019-03-23T18:44:20.808Z,101241.00
2019-03-23T18:47:09.411Z,101233.00
2019-03-23T18:49:59.478Z,101236.00
2019-03-23T18:52:48.681Z,101251.00
2019-03-23T18:55:38.190Z,101235.00
2019-03-23T18:58:27.718Z,101244.00
2019-03-23T19:01:16.782Z,101246.00
2019-03-23T19:04:05.962Z,101251.00
2019-03-23T19:06:55.349Z,101259.00
2019-03-23T19:12:10.971Z,101262.00
2019-03-23T19:15:00.626Z,101258.00
2019-03-23T19:17:27.677Z,101256.00
2019-03-23T19:25:18.327Z,101264.00
2019-03-23T19:28:00.649Z,101282.00
2019-03-23T19:30:43.072Z,101282.00
2019-03-23T19:33:25.500Z,101274.00
2019-03-23T19:36:14.317Z,101284.00
2019-03-23T19:39:03.356Z,101274.00
2019-03-23T19:41:52.653Z,101262.00
2019-03-23T19:44:42.399Z,101260.00
2019-03-23T19:52:25.238Z,101271.00
2019-03-23T19:57:40.711Z,101270.00
2019-03-23T20:00:34.503Z,101268.00
2019-03-23T20:03:23.314Z,101265.00
2019-03-23T20:06:12.867Z,101269.00
2019-03-23T20:08:55.465Z,101262.00
2019-03-23T20:11:31.345Z,101275.00
2019-03-23T20:14:14.486Z,101263.00
2019-03-23T20:16:57.101Z,101266.00
2019-03-23T20:19:39.678Z,101259.00
2019-03-23T20:22:22.942Z,101264.00
2019-03-23T20:25:12.972Z,101269.00
2019-03-23T20:27:56.172Z,101271.00
2019-03-23T20:30:38.903Z,101275.00
2019-03-23T20:33:22.464Z,101275.00
2019-03-23T20:35:58.830Z,101278.00
2019-03-23T20:38:41.955Z,101273.00
2019-03-23T20:41:17.870Z,101285.00
2019-03-23T20:44:09.129Z,101281.00
2019-03-23T20:46:40.405Z,101293.00
2019-03-23T20:49:23.750Z,101283.00
2019-03-23T20:51:59.977Z,101283.00
2019-03-23T20:54:42.794Z,101165.00
2019-03-23T20:57:23.968Z,101291.00
2019-03-23T21:00:03.147Z,101286.00
2019-03-23T21:02:39.607Z,101284.00
2019-03-23T21:05:36.260Z,101285.00
2019-03-23T21:08:12.775Z,101281.00
2019-03-23T21:13:22.163Z,101286.00
2019-03-23T21:16:04.593Z,101287.00
2019-03-23T21:21:20.233Z,101289.00
2019-03-23T21:24:03.192Z,101292.00
2019-03-23T21:26:39.118Z,101302.00
2019-03-23T21:29:14.286Z,101290.00
2019-03-23T21:31:57.147Z,101302.00
2019-03-23T21:37:12.930Z,101291.00
2019-03-23T21:39:55.082Z,101291.00
2019-03-23T21:42:31.629Z,101294.00
2019-03-23T21:45:08.799Z,101286.00
2019-03-23T21:47:51.441Z,101284.00
2019-03-23T21:50:18.478Z,101286.00
2019-03-23T21:53:07.798Z,101285.00
2019-03-23T21:55:57.438Z,101284.00
2019-03-23T21:58:46.712Z,101286.00
2019-03-23T22:01:36.319Z,101284.00
2019-03-23T22:04:25.553Z,101297.00
2019-03-23T22:07:14.360Z,101274.00
2019-03-23T22:10:03.791Z,101269.00
2019-03-23T22:12:53.332Z,101270.00
2019-03-23T22:15:36.323Z,101273.00
2019-03-23T22:18:18.277Z,101272.00
2019-03-23T22:21:07.626Z,101268.00
2019-03-23T22:23:56.863Z,101274.00
2019-03-23T22:31:46.299Z,101287.00
2019-03-23T22:34:22.855Z,101278.00
2019-03-23T22:36:52.302Z,101281.00
2019-03-23T22:39:28.317Z,101288.00
2019-03-23T22:41:57.832Z,101293.00
2019-03-23T22:44:27.347Z,101285.00
2019-03-23T22:47:03.908Z,101288.00
2019-03-23T22:49:33.352Z,101292.00
2019-03-23T22:52:09.966Z,101294.00
2019-03-23T22:54:46.150Z,101287.00
2019-03-23T22:57:22.351Z,101291.00
2019-03-23T22:59:58.525Z,101291.00
2019-03-23T23:02:34.811Z,101292.00
2019-03-23T23:05:06.573Z,101292.00
2019-03-23T23:07:42.823Z,101295.00
2019-03-23T23:10:12.578Z,101300.00
2019-03-23T23:12:48.667Z,101283.00
2019-03-23T23:15:24.892Z,101288.00
2019-03-23T23:18:01.368Z,101297.00
2019-03-23T23:20:36.913Z,101292.00
2019-03-23T23:23:06.575Z,101296.00
2019-03-23T23:25:42.623Z,101292.00
2019-03-23T23:28:18.624Z,101299.00
2019-03-23T23:30:54.174Z,101292.00
2019-03-23T23:33:30.401Z,101296.00
2019-03-23T23:36:06.245Z,101296.00
2019-03-23T23:38:35.701Z,101334.00
2019-03-23T23:41:12.371Z,101305.00
2019-03-23T23:43:48.262Z,101304.00
2019-03-23T23:46:24.764Z,101293.00
2019-03-23T23:49:06.962Z,101296.00
2019-03-23T23:51:36.539Z,101300.00
2019-03-23T23:54:12.671Z,101303.00
2019-03-23T23:56:42.167Z,101301.00
2019-03-23T23:59:18.808Z,101305.00
